NetherlandsFixed distance
Centurion Schiedam
31 May2008
Distance
50mi
Finishers
3125 men6 women
Winning time
9:24:58h
Median pace
6.83km/h
Pace distribution
31 finishers · 5.36–8.55 km/h · mean 6.80
Every finisher ran the same 50 mi course, so these paces are directly comparable.
Histogram of finisher pace. 31 finishers ranged from 5.36 to 8.55 kilometres per hour, with a mean of 6.80 and a median of 6.83. The busiest band is 6.0 to 6.5 kilometres per hour, with 7 finishers.
Results
Ranks 1–31 of 31
| Rank | Runner | Time | Pace | Cat. | Placing |
|---|---|---|---|---|---|
| 1 | Unitas | 9:24:58h | 8.55 | M40 | 1st M · 1st M40 |
| 2 | SV de LAT | 9:42:54h | 8.28 | M35 | 2nd M · 1st M35 |
| 3 | RWV | 10:03:19h | 8.00 | W40 | 1st F · 1st W40 |
| 4 | RWV | 10:14:18h | 7.86 | M40 | 3rd M · 2nd M40 |
| 5 | RWV | 10:19:54h | 7.79 | MU23 | 4th M · 1st MU23 |
| 6 | Olat | 10:25:30h | 7.72 | M60 | 5th M · 1st M60 |
| 7 | RWV | 10:27:01h | 7.70 | M60 | 6th M · 2nd M60 |
| 8 | 10:31:52h | 7.64 | M40 | 7th M · 3rd M40 | |
| 9 | RWV | 11:06:20h | 7.25 | M60 | 8th M · 3rd M60 |
| 10 | Flal | 11:09:19h | 7.21 | M55 | 9th M · 1st M55 |
| 11 | Haaglanden | 11:15:39h | 7.15 | M50 | 10th M · 1st M50 |
| 12 | Posthoorn | 11:29:09h | 7.01 | M50 | 11th M · 2nd M50 |
| 13 | Olat | 11:35:23h | 6.94 | W65 | 2nd F · 1st W65 |
| 14 | Olat | 11:36:42h | 6.93 | M70 | 12th M · 1st M70 |
| 15 | Olat | 11:37:22h | 6.92 | W23 | 3rd F · 1st W23 |
| 16 | Olat | 11:46:24h | 6.83 | M50 | 13th M · 3rd M50 |
| 17 | Olat | 12:17:34h | 6.55 | M50 | 14th M · 4th M50 |
| 18 | Olat | 12:19:48h | 6.53 | M55 | 15th M · 2nd M55 |
| 19 | 2006 Heikn. | 12:19:48h | 6.53 | W60 | 4th F · 1st W60 |
| 20 | Surrey WC | 12:48:05h | 6.29 | W60 | 5th F · 2nd W60 |
| 21 | Knblo | 13:02:20h | 6.17 | W65 | 6th F · 2nd W65 |
| 22 | WS '78 | 13:02:20h | 6.17 | M55 | 16th M · 3rd M55 |
| 23 | VTM | 13:05:20h | 6.15 | M50 | 17th M · 5th M50 |
| 24 | RWV | 13:06:19h | 6.14 | M40 | 18th M · 4th M40 |
| 25 | 13:19:07h | 6.04 | M65 | 19th M · 1st M65 | |
| 26 | Knblo | 13:22:22h | 6.02 | M50 | 20th M · 6th M50 |
| 27 | RWV | 13:37:00h | 5.91 | M55 | 21st M · 4th M55 |
| 28 | DST | 13:39:48h | 5.89 | M35 | 22nd M · 2nd M35 |
| 29 | 13:57:31h | 5.76 | M40 | 23rd M · 5th M40 | |
| 30 | 14:16:37h | 5.64 | M55 | 24th M · 5th M55 | |
| 31 | OWB | 15:00:09h | 5.36 | M55 | 25th M · 6th M55 |
- 1Unitas1st M · 1st M40Time9:24:58hPace8.55Cat.M40
- 2SV de LAT2nd M · 1st M35Time9:42:54hPace8.28Cat.M35
- 3RWV1st F · 1st W40Time10:03:19hPace8.00Cat.W40
- 4RWV3rd M · 2nd M40Time10:14:18hPace7.86Cat.M40
- 5RWV4th M · 1st MU23Time10:19:54hPace7.79Cat.MU23
- 6Olat5th M · 1st M60Time10:25:30hPace7.72Cat.M60
- 7RWV6th M · 2nd M60Time10:27:01hPace7.70Cat.M60
- 87th M · 3rd M40Time10:31:52hPace7.64Cat.M40
- 9RWV8th M · 3rd M60Time11:06:20hPace7.25Cat.M60
- 10Flal9th M · 1st M55Time11:09:19hPace7.21Cat.M55
- 11Haaglanden10th M · 1st M50Time11:15:39hPace7.15Cat.M50
- 12Posthoorn11th M · 2nd M50Time11:29:09hPace7.01Cat.M50
- 13Olat2nd F · 1st W65Time11:35:23hPace6.94Cat.W65
- 14Olat12th M · 1st M70Time11:36:42hPace6.93Cat.M70
- 15Olat3rd F · 1st W23Time11:37:22hPace6.92Cat.W23
- 16Olat13th M · 3rd M50Time11:46:24hPace6.83Cat.M50
- 17Olat14th M · 4th M50Time12:17:34hPace6.55Cat.M50
- 18Olat15th M · 2nd M55Time12:19:48hPace6.53Cat.M55
- 192006 Heikn.4th F · 1st W60Time12:19:48hPace6.53Cat.W60
- 20Surrey WC5th F · 2nd W60Time12:48:05hPace6.29Cat.W60
- 21Knblo6th F · 2nd W65Time13:02:20hPace6.17Cat.W65
- 22WS '7816th M · 3rd M55Time13:02:20hPace6.17Cat.M55
- 23VTM17th M · 5th M50Time13:05:20hPace6.15Cat.M50
- 24RWV18th M · 4th M40Time13:06:19hPace6.14Cat.M40
- 2519th M · 1st M65Time13:19:07hPace6.04Cat.M65
- 26Knblo20th M · 6th M50Time13:22:22hPace6.02Cat.M50
- 27RWV21st M · 4th M55Time13:37:00hPace5.91Cat.M55
- 28DST22nd M · 2nd M35Time13:39:48hPace5.89Cat.M35
- 2923rd M · 5th M40Time13:57:31hPace5.76Cat.M40
- 3024th M · 5th M55Time14:16:37hPace5.64Cat.M55
- 31OWB25th M · 6th M55Time15:00:09hPace5.36Cat.M55